Time,TemperatureF,DewpointF,PressureIn,WindDirection,WindDirectionDegrees,WindSpeedMPH,WindSpeedGustMPH,Humidity,HourlyPrecipIn,Conditions,Clouds,dailyrainin,SoftwareType,DateUTC
2013-04-06 00:04:00,31.0,21.0,27.65,WNW,298,3.0,7.0,66,0.00,,,0.00,,2013-04-06 04:04:00,
2013-04-06 00:14:00,31.0,21.0,27.65,WNW,298,3.0,7.0,66,0.00,,,0.00,,2013-04-06 04:14:00,
2013-04-06 00:23:00,30.0,19.0,27.66,NE,44,3.0,7.0,63,0.00,,,0.00,,2013-04-06 04:23:00,
2013-04-06 00:33:00,30.0,18.0,27.66,SW,226,1.0,11.0,61,0.00,,,0.00,,2013-04-06 04:33:00,
2013-04-06 00:43:00,30.0,18.0,27.66,SW,226,1.0,11.0,61,0.00,,,0.00,,2013-04-06 04:43:00,
2013-04-06 00:53:00,30.0,17.0,27.67,WNW,302,2.0,13.0,59,0.00,,,0.00,,2013-04-06 04:53:00,
2013-04-06 01:02:00,30.0,17.0,27.67,WSW,250,4.0,10.0,58,0.00,,,0.00,,2013-04-06 05:02:00,
2013-04-06 01:13:00,30.0,17.0,27.67,WSW,250,4.0,10.0,58,0.00,,,0.00,,2013-04-06 05:13:00,
2013-04-06 01:22:00,29.0,16.0,27.68,WSW,250,5.0,10.0,57,0.00,,,0.00,,2013-04-06 05:22:00,
2013-04-06 01:32:00,29.0,16.0,27.68,WSW,250,5.0,10.0,57,0.00,,,0.00,,2013-04-06 05:32:00,
2013-04-06 01:43:00,29.0,16.0,27.68,WSW,250,5.0,10.0,57,0.00,,,0.00,,2013-04-06 05:43:00,
2013-04-06 01:52:00,29.0,16.0,27.68,NNW,345,4.0,6.0,57,0.00,,,0.00,,2013-04-06 05:52:00,
2013-04-06 02:03:00,29.0,16.0,27.69,WSW,246,2.0,9.0,58,0.00,,,0.00,,2013-04-06 06:03:00,
2013-04-06 02:12:00,29.0,16.0,27.69,WSW,246,2.0,9.0,58,0.00,,,0.00,,2013-04-06 06:12:00,
2013-04-06 02:22:00,29.0,15.0,27.70,NNW,347,3.0,8.0,56,0.00,,,0.00,,2013-04-06 06:22:00,
2013-04-06 02:33:00,29.0,15.0,27.70,WSW,252,2.0,7.0,55,0.00,,,0.00,,2013-04-06 06:33:00,
2013-04-06 02:42:00,29.0,15.0,27.70,WSW,252,2.0,7.0,55,0.00,,,0.00,,2013-04-06 06:42:00,
2013-04-06 02:53:00,28.0,13.0,27.70,NW,304,6.0,15.0,52,0.00,,,0.00,,2013-04-06 06:53:00,
2013-04-06 03:03:00,28.0,13.0,27.71,West,273,9.0,18.0,52,0.00,,,0.00,,2013-04-06 07:03:00,
2013-04-06 03:12:00,28.0,13.0,27.71,West,273,9.0,18.0,52,0.00,,,0.00,,2013-04-06 07:12:00,
2013-04-06 03:22:00,27.0,12.0,27.72,NW,320,4.0,14.0,53,0.00,,,0.00,,2013-04-06 07:22:00,
2013-04-06 03:33:00,27.0,13.0,27.73,SSW,200,3.0,7.0,54,0.00,,,0.00,,2013-04-06 07:33:00,
2013-04-06 03:43:00,27.0,13.0,27.73,SSW,200,3.0,7.0,54,0.00,,,0.00,,2013-04-06 07:43:00,
2013-04-06 03:53:00,27.0,13.0,27.73,NNE,22,2.0,7.0,55,0.00,,,0.00,,2013-04-06 07:53:00,
2013-04-06 04:02:00,26.0,11.0,27.74,North,11,5.0,11.0,53,0.00,,,0.00,,2013-04-06 08:02:00,
2013-04-06 04:13:00,26.0,11.0,27.74,North,11,5.0,11.0,53,0.00,,,0.00,,2013-04-06 08:13:00,
2013-04-06 04:22:00,26.0,11.0,27.75,WNW,290,2.0,14.0,52,0.00,,,0.00,,2013-04-06 08:22:00,
2013-04-06 04:31:00,25.0,10.0,27.76,WSW,240,7.0,16.0,53,0.00,,,0.00,,2013-04-06 08:31:00,
2013-04-06 04:32:00,25.0,10.0,27.76,NNW,345,3.0,7.0,53,0.00,,,0.00,,2013-04-06 08:32:00,
2013-04-06 04:42:00,25.0,10.0,27.76,NNW,345,3.0,7.0,53,0.00,,,0.00,,2013-04-06 08:42:00,
2013-04-06 04:52:00,25.0,10.0,27.76,WSW,240,7.0,16.0,53,0.00,,,0.00,,2013-04-06 08:52:00,
2013-04-06 05:02:00,25.0,10.0,27.76,WSW,240,7.0,16.0,53,0.00,,,0.00,,2013-04-06 09:02:00,
2013-04-06 05:13:00,25.0,10.0,27.76,WSW,240,7.0,16.0,53,0.00,,,0.00,,2013-04-06 09:13:00,
2013-04-06 05:22:00,25.0,10.0,27.76,WSW,240,7.0,16.0,53,0.00,,,0.00,,2013-04-06 09:22:00,
2013-04-06 09:03:00,25.0,8.0,27.91,WNW,287,4.0,10.0,47,0.00,,,0.00,,2013-04-06 13:03:00,
2013-04-06 09:13:00,25.0,8.0,27.91,WNW,287,4.0,10.0,47,0.00,,,0.00,,2013-04-06 13:13:00,
2013-04-06 09:24:00,26.0,8.0,27.91,West,259,4.0,11.0,45,0.00,,,0.00,,2013-04-06 13:24:00,
2013-04-06 09:32:00,26.0,8.0,27.93,NNW,341,5.0,12.0,46,0.00,,,0.00,,2013-04-06 13:32:00,
2013-04-06 09:43:00,26.0,8.0,27.93,NNW,341,5.0,12.0,46,0.00,,,0.00,,2013-04-06 13:43:00,
2013-04-06 09:54:00,27.0,8.0,27.92,WNW,290,6.0,20.0,43,0.00,,,0.00,,2013-04-06 13:54:00,
2013-04-06 10:04:00,27.0,7.0,27.93,SW,231,4.0,14.0,42,0.00,,,0.00,,2013-04-06 14:04:00,
2013-04-06 10:12:00,27.0,7.0,27.93,SW,231,4.0,14.0,42,0.00,,,0.00,,2013-04-06 14:12:00,
2013-04-06 10:22:00,28.0,8.0,27.94,ENE,57,2.0,8.0,43,0.00,,,0.00,,2013-04-06 14:22:00,
2013-04-06 10:33:00,28.0,7.0,27.94,North,356,5.0,16.0,40,0.00,,,0.00,,2013-04-06 14:33:00,
2013-04-06 10:43:00,28.0,7.0,27.94,North,356,5.0,16.0,40,0.00,,,0.00,,2013-04-06 14:43:00,
2013-04-06 10:53:00,28.0,7.0,27.94,North,356,5.0,16.0,40,0.00,,,0.00,,2013-04-06 14:53:00,
2013-04-06 11:02:00,30.0,8.0,27.95,West,281,3.0,13.0,38,0.00,,,0.00,,2013-04-06 15:02:00,
2013-04-06 11:12:00,30.0,8.0,27.95,West,281,3.0,13.0,38,0.00,,,0.00,,2013-04-06 15:12:00,
2013-04-06 11:23:00,31.0,9.0,27.95,WSW,242,4.0,11.0,39,0.00,,,0.00,,2013-04-06 15:23:00,
2013-04-06 11:31:00,32.0,7.0,27.96,NW,326,8.0,14.0,34,0.00,,,0.00,,2013-04-06 15:31:00,
2013-04-06 11:33:00,31.0,7.0,27.95,WSW,250,6.0,12.0,36,0.00,,,0.00,,2013-04-06 15:33:00,
2013-04-06 11:43:00,31.0,7.0,27.95,WSW,250,6.0,12.0,36,0.00,,,0.00,,2013-04-06 15:43:00,
2013-04-06 11:53:00,32.0,7.0,27.96,NW,326,8.0,14.0,34,0.00,,,0.00,,2013-04-06 15:53:00,
2013-04-06 12:05:00,32.0,7.0,27.96,NW,326,8.0,14.0,34,0.00,,,0.00,,2013-04-06 16:05:00,
2013-04-06 12:17:00,32.0,7.0,27.96,NW,326,8.0,14.0,34,0.00,,,0.00,,2013-04-06 16:17:00,
2013-04-06 12:23:00,32.0,7.0,27.96,NW,326,8.0,14.0,34,0.00,,,0.00,,2013-04-06 16:23:00,
2013-04-06 12:53:00,33.0,4.0,27.97,North,355,7.0,14.0,29,0.00,,,0.00,,2013-04-06 16:53:00,
2013-04-06 13:03:00,34.0,7.0,27.97,West,267,3.0,13.0,32,0.00,,,0.00,,2013-04-06 17:03:00,
2013-04-06 13:13:00,34.0,7.0,27.97,West,267,3.0,13.0,32,0.00,,,0.00,,2013-04-06 17:13:00,
2013-04-06 13:22:00,34.0,5.0,27.97,SE,143,5.0,16.0,29,0.00,,,0.00,,2013-04-06 17:22:00,
2013-04-06 13:33:00,35.0,4.0,27.96,WSW,257,10.0,19.0,27,0.00,,,0.00,,2013-04-06 17:33:00,
2013-04-06 13:42:00,35.0,4.0,27.96,WSW,257,10.0,19.0,27,0.00,,,0.00,,2013-04-06 17:42:00,
2013-04-06 13:52:00,35.0,5.0,27.97,SW,233,8.0,13.0,28,0.00,,,0.00,,2013-04-06 17:52:00,
2013-04-06 14:03:00,36.0,7.0,27.97,South,191,2.0,13.0,29,0.00,,,0.00,,2013-04-06 18:03:00,
2013-04-06 14:12:00,36.0,7.0,27.97,South,191,2.0,13.0,29,0.00,,,0.00,,2013-04-06 18:12:00,
2013-04-06 14:23:00,36.0,4.0,27.97,NNW,333,7.0,15.0,25,0.00,,,0.00,,2013-04-06 18:23:00,
2013-04-06 14:32:00,36.0,6.0,27.96,WNW,288,5.0,12.0,28,0.00,,,0.00,,2013-04-06 18:32:00,
2013-04-06 14:42:00,36.0,6.0,27.96,WNW,288,5.0,12.0,28,0.00,,,0.00,,2013-04-06 18:42:00,
2013-04-06 14:52:00,37.0,4.0,27.97,NNW,330,7.0,14.0,25,0.00,,,0.00,,2013-04-06 18:52:00,
2013-04-06 15:03:00,37.0,7.0,27.97,West,267,4.0,11.0,28,0.00,,,0.00,,2013-04-06 19:03:00,
2013-04-06 15:12:00,37.0,7.0,27.97,West,267,4.0,11.0,28,0.00,,,0.00,,2013-04-06 19:12:00,
2013-04-06 15:23:00,38.0,4.0,27.96,WNW,291,3.0,13.0,24,0.00,,,0.00,,2013-04-06 19:23:00,
2013-04-06 15:33:00,38.0,4.0,27.96,NNW,335,4.0,11.0,24,0.00,,,0.00,,2013-04-06 19:33:00,
2013-04-06 15:42:00,38.0,4.0,27.96,NNW,335,4.0,11.0,24,0.00,,,0.00,,2013-04-06 19:42:00,
2013-04-06 15:54:00,39.0,11.0,27.96,WNW,301,2.0,7.0,31,0.00,,,0.00,,2013-04-06 19:54:00,
2013-04-06 16:03:00,38.0,4.0,27.96,NW,311,4.0,10.0,24,0.00,,,0.00,,2013-04-06 20:03:00,
2013-04-06 16:12:00,38.0,4.0,27.96,NW,311,4.0,10.0,24,0.00,,,0.00,,2013-04-06 20:12:00,
2013-04-06 16:23:00,38.0,4.0,27.96,WNW,292,3.0,6.0,24,0.00,,,0.00,,2013-04-06 20:23:00,
2013-04-06 16:32:00,39.0,4.0,27.96,NNE,16,3.0,7.0,23,0.00,,,0.00,,2013-04-06 20:32:00,
2013-04-06 16:42:00,39.0,4.0,27.96,NNE,16,3.0,7.0,23,0.00,,,0.00,,2013-04-06 20:42:00,
2013-04-06 16:53:00,39.0,5.0,27.96,WNW,285,5.0,11.0,24,0.00,,,0.00,,2013-04-06 20:53:00,
2013-04-06 17:02:00,38.0,4.0,27.96,NNW,335,4.0,15.0,23,0.00,,,0.00,,2013-04-06 21:02:00,
2013-04-06 17:13:00,39.0,4.0,27.97,WNW,291,3.0,8.0,23,0.00,,,0.00,,2013-04-06 21:13:00,
2013-04-06 17:22:00,39.0,4.0,27.97,WNW,291,3.0,8.0,23,0.00,,,0.00,,2013-04-06 21:22:00,
2013-04-06 17:33:00,40.0,5.0,27.98,South,176,1.0,6.0,23,0.00,,,0.00,,2013-04-06 21:33:00,
2013-04-06 17:43:00,40.0,5.0,27.98,South,176,1.0,6.0,23,0.00,,,0.00,,2013-04-06 21:43:00,
2013-04-06 17:53:00,40.0,5.0,27.99,NE,54,1.0,8.0,23,0.00,,,0.00,,2013-04-06 21:53:00,
2013-04-06 18:03:00,40.0,4.0,27.99,West,271,5.0,8.0,22,0.00,,,0.00,,2013-04-06 22:03:00,
2013-04-06 18:13:00,40.0,4.0,27.99,West,271,5.0,8.0,22,0.00,,,0.00,,2013-04-06 22:13:00,
2013-04-06 18:23:00,40.0,4.0,28.00,WSW,239,3.0,5.0,22,0.00,,,0.00,,2013-04-06 22:23:00,
2013-04-06 18:34:00,40.0,4.0,28.00,North,359,2.0,5.0,22,0.00,,,0.00,,2013-04-06 22:34:00,
2013-04-06 18:43:00,40.0,4.0,28.00,North,359,2.0,5.0,22,0.00,,,0.00,,2013-04-06 22:43:00,
2013-04-06 18:54:00,39.0,3.0,28.00,West,273,1.0,8.0,22,0.00,,,0.00,,2013-04-06 22:54:00,
2013-04-06 19:03:00,36.0,3.0,28.01,West,266,1.0,5.0,24,0.00,,,0.00,,2013-04-06 23:03:00,
2013-04-06 19:14:00,36.0,3.0,28.01,West,266,1.0,5.0,24,0.00,,,0.00,,2013-04-06 23:14:00,
2013-04-06 19:23:00,36.0,4.0,28.00,West,264,0.0,3.0,25,0.00,,,0.00,,2013-04-06 23:23:00,
2013-04-06 19:34:00,34.0,4.0,28.01,WNW,300,0.0,1.0,27,0.00,,,0.00,,2013-04-06 23:34:00,
2013-04-06 19:43:00,34.0,4.0,28.01,WNW,300,0.0,1.0,27,0.00,,,0.00,,2013-04-06 23:43:00,
2013-04-06 19:53:00,32.0,2.0,28.01,SSW,194,0.0,0.0,27,0.00,,,0.00,,2013-04-06 23:53:00,
2013-04-06 20:02:00,32.0,2.0,28.01,SSW,194,0.0,0.0,27,0.00,,,0.00,,2013-04-07 00:02:00,
2013-04-06 20:13:00,32.0,2.0,28.01,SSW,194,0.0,0.0,27,0.00,,,0.00,,2013-04-07 00:13:00,
2013-04-06 20:22:00,32.0,2.0,28.02,SSW,194,0.0,0.0,27,0.00,,,0.00,,2013-04-07 00:22:00,
2013-04-06 20:33:00,31.0,2.0,28.03,SSW,194,0.0,1.0,28,0.00,,,0.00,,2013-04-07 00:33:00,
2013-04-06 20:43:00,31.0,2.0,28.03,SSW,194,0.0,1.0,28,0.00,,,0.00,,2013-04-07 00:43:00,
2013-04-06 20:53:00,30.0,4.0,28.03,SSW,194,0.0,0.0,32,0.00,,,0.00,,2013-04-07 00:53:00,
2013-04-06 21:02:00,30.0,4.0,28.03,SW,217,1.0,1.0,33,0.00,,,0.00,,2013-04-07 01:02:00,
2013-04-06 21:12:00,30.0,4.0,28.03,SW,217,1.0,1.0,33,0.00,,,0.00,,2013-04-07 01:12:00,
2013-04-06 21:23:00,30.0,3.0,28.04,SW,217,0.0,1.0,31,0.00,,,0.00,,2013-04-07 01:23:00,
2013-04-06 21:33:00,28.0,5.0,28.04,SE,136,1.0,1.0,37,0.00,,,0.00,,2013-04-07 01:33:00,
2013-04-06 21:43:00,28.0,5.0,28.04,SE,136,1.0,1.0,37,0.00,,,0.00,,2013-04-07 01:43:00,
2013-04-06 21:53:00,28.0,5.0,28.05,SE,135,0.0,1.0,37,0.00,,,0.00,,2013-04-07 01:53:00,
2013-04-06 22:03:00,28.0,6.0,28.05,SE,135,0.0,1.0,39,0.00,,,0.00,,2013-04-07 02:03:00,
2013-04-06 22:12:00,28.0,6.0,28.05,SE,135,0.0,1.0,39,0.00,,,0.00,,2013-04-07 02:12:00,
2013-04-06 22:23:00,27.0,6.0,28.06,SE,135,0.0,1.0,40,0.00,,,0.00,,2013-04-07 02:23:00,
2013-04-06 22:33:00,28.0,7.0,28.05,ENE,78,0.0,2.0,40,0.00,,,0.00,,2013-04-07 02:33:00,
2013-04-06 22:43:00,28.0,7.0,28.05,ENE,78,0.0,2.0,40,0.00,,,0.00,,2013-04-07 02:43:00,
2013-04-06 22:52:00,27.0,6.0,28.05,ENE,78,0.0,0.0,41,0.00,,,0.00,,2013-04-07 02:52:00,
2013-04-06 23:02:00,27.0,7.0,28.05,ENE,78,0.0,1.0,42,0.00,,,0.00,,2013-04-07 03:02:00,
2013-04-06 23:12:00,27.0,7.0,28.05,ENE,78,0.0,1.0,42,0.00,,,0.00,,2013-04-07 03:12:00,
2013-04-06 23:22:00,27.0,8.0,28.05,ENE,78,0.0,1.0,43,0.00,,,0.00,,2013-04-07 03:22:00,
2013-04-06 23:35:00,27.0,8.0,28.05,ENE,78,0.0,0.0,44,0.00,,,0.00,,2013-04-07 03:35:00,
2013-04-06 23:44:00,27.0,8.0,28.05,ENE,78,0.0,0.0,44,0.00,,,0.00,,2013-04-07 03:44:00,
2013-04-06 23:55:00,27.0,9.0,28.04,ENE,77,0.0,0.0,46,0.00,,,0.00,,2013-04-07 03:55:00,